Hovedside
METAR-TAF:

METAR-TAF

Lufthavner :

Eros Airport

Windhoek, Namibia

breddegrad: 22-36-44S, lengdegrad: 017-04-50E, høyde over havet: 1699 m

Gjeldene værobservasjon

Denne rapporten ble laget for 51 minutter siden, klokken 03:00 UTC
Vind 5 kt fra Sør-sørøst
Temperatur 3°C
Luftfuktighet 52%
Trykk 1030 hPa
Sikt 10 km eller mer
ingen skyer under 1500 m og ingen bygeskyer

METAR: FYWE 140300Z 16005KT CAVOK 03/M06 Q1030

Tid: 05:51 (03:51 UTC)

Varsel

Denne rapporten ble laget for 1 time og 51 minutter siden, klokken 02:00 UTC
Varsel gyldig fra 14. klokken 03 UTC til 14. klokken 12 UTC
Vind 5 kt fra Sør-sørøst
Sikt 10 km eller mer
ingen skyer under 1500 m og ingen bygeskyer

TAF: FYWE 140200Z 1403/1412 16005KT CAVOK

Værobservasjoner og værvarsel for over 4000 flyplasser (METAR- og TAF-rapporter).

Tilgjengelige stasjoner er representert av de røde og gule prikkene på kartet.

Hold musepekeren over prikken for å se navnet på stasjonen.

Klikk så for å se værobservasjoner og -varsler.

For å forandre kartet kan du klikke på den grønne knappen med svart kryss for å zoome inn, på den grønne knappen med strek for å zoome ut, eller på de grønne pilene for å se tilstøtende kart.


METAR-TAF: